sensor_id;sensor_type;location;lat;lon;timestamp;P1;durP1;ratioP1;P2;durP2;ratioP2
16113;SDS011;8161;-33.910;151.156;2022-12-18T00:02:15;2.70;;;0.70;;
16113;SDS011;8161;-33.910;151.156;2022-12-18T00:04:43;3.45;;;0.60;;
16113;SDS011;8161;-33.910;151.156;2022-12-18T00:07:10;1.90;;;0.40;;
16113;SDS011;8161;-33.910;151.156;2022-12-18T00:09:38;1.33;;;0.55;;
16113;SDS011;8161;-33.910;151.156;2022-12-18T00:12:05;3.22;;;0.60;;
16113;SDS011;8161;-33.910;151.156;2022-12-18T00:14:32;2.15;;;0.90;;
16113;SDS011;8161;-33.910;151.156;2022-12-18T00:17:00;4.07;;;0.63;;
16113;SDS011;8161;-33.910;151.156;2022-12-18T00:19:28;3.00;;;0.70;;
16113;SDS011;8161;-33.910;151.156;2022-12-18T00:21:55;2.65;;;0.88;;
16113;SDS011;8161;-33.910;151.156;2022-12-18T00:24:23;4.68;;;1.23;;
16113;SDS011;8161;-33.910;151.156;2022-12-18T00:26:50;3.13;;;0.52;;
16113;SDS011;8161;-33.910;151.156;2022-12-18T00:29:18;3.28;;;0.77;;
16113;SDS011;8161;-33.910;151.156;2022-12-18T00:31:45;2.40;;;0.60;;
16113;SDS011;8161;-33.910;151.156;2022-12-18T00:34:13;3.28;;;0.55;;
16113;SDS011;8161;-33.910;151.156;2022-12-18T00:36:40;2.78;;;0.50;;
16113;SDS011;8161;-33.910;151.156;2022-12-18T00:39:08;2.28;;;0.47;;
16113;SDS011;8161;-33.910;151.156;2022-12-18T00:41:37;2.45;;;0.38;;
16113;SDS011;8161;-33.910;151.156;2022-12-18T00:44:17;1.92;;;0.50;;
16113;SDS011;8161;-33.910;151.156;2022-12-18T00:46:45;3.30;;;0.70;;
16113;SDS011;8161;-33.910;151.156;2022-12-18T00:49:14;2.65;;;0.73;;
16113;SDS011;8161;-33.910;151.156;2022-12-18T00:51:43;3.58;;;0.70;;
16113;SDS011;8161;-33.910;151.156;2022-12-18T00:54:11;0.85;;;0.57;;
16113;SDS011;8161;-33.910;151.156;2022-12-18T00:56:39;2.80;;;0.90;;
16113;SDS011;8161;-33.910;151.156;2022-12-18T00:59:06;3.05;;;0.70;;
16113;SDS011;8161;-33.910;151.156;2022-12-18T01:01:34;3.70;;;0.60;;
16113;SDS011;8161;-33.910;151.156;2022-12-18T01:04:01;3.13;;;0.68;;
16113;SDS011;8161;-33.910;151.156;2022-12-18T01:06:29;4.45;;;0.68;;
16113;SDS011;8161;-33.910;151.156;2022-12-18T01:08:57;3.33;;;0.75;;
16113;SDS011;8161;-33.910;151.156;2022-12-18T01:11:24;5.00;;;0.98;;
16113;SDS011;8161;-33.910;151.156;2022-12-18T01:13:52;3.22;;;0.88;;
16113;SDS011;8161;-33.910;151.156;2022-12-18T01:16:20;4.68;;;1.02;;
16113;SDS011;8161;-33.910;151.156;2022-12-18T01:18:50;4.15;;;0.85;;
16113;SDS011;8161;-33.910;151.156;2022-12-18T01:21:20;2.05;;;0.90;;
16113;SDS011;8161;-33.910;151.156;2022-12-18T01:23:52;5.38;;;1.13;;
16113;SDS011;8161;-33.910;151.156;2022-12-18T01:26:20;7.40;;;1.00;;
16113;SDS011;8161;-33.910;151.156;2022-12-18T01:28:48;4.95;;;1.00;;
16113;SDS011;8161;-33.910;151.156;2022-12-18T01:31:18;2.63;;;1.00;;
16113;SDS011;8161;-33.910;151.156;2022-12-18T01:33:48;3.42;;;0.95;;
16113;SDS011;8161;-33.910;151.156;2022-12-18T01:36:18;7.57;;;1.27;;
16113;SDS011;8161;-33.910;151.156;2022-12-18T01:38:47;5.00;;;1.10;;
16113;SDS011;8161;-33.910;151.156;2022-12-18T01:41:17;4.60;;;0.98;;
16113;SDS011;8161;-33.910;151.156;2022-12-18T01:46:17;7.25;;;1.50;;
16113;SDS011;8161;-33.910;151.156;2022-12-18T01:48:46;9.20;;;1.48;;
16113;SDS011;8161;-33.910;151.156;2022-12-18T01:51:21;8.20;;;1.45;;
16113;SDS011;8161;-33.910;151.156;2022-12-18T01:53:49;10.30;;;2.72;;
16113;SDS011;8161;-33.910;151.156;2022-12-18T01:56:18;11.18;;;1.92;;
16113;SDS011;8161;-33.910;151.156;2022-12-18T01:58:48;8.85;;;1.55;;
16113;SDS011;8161;-33.910;151.156;2022-12-18T02:01:17;16.33;;;1.98;;
16113;SDS011;8161;-33.910;151.156;2022-12-18T02:03:45;9.55;;;1.75;;
16113;SDS011;8161;-33.910;151.156;2022-12-18T02:06:15;10.20;;;2.38;;
16113;SDS011;8161;-33.910;151.156;2022-12-18T02:08:58;11.80;;;1.50;;
16113;SDS011;8161;-33.910;151.156;2022-12-18T02:14:35;10.50;;;2.03;;
16113;SDS011;8161;-33.910;151.156;2022-12-18T02:17:21;7.13;;;1.55;;
16113;SDS011;8161;-33.910;151.156;2022-12-18T02:28:09;16.10;;;2.38;;
16113;SDS011;8161;-33.910;151.156;2022-12-18T02:30:39;11.10;;;1.50;;
16113;SDS011;8161;-33.910;151.156;2022-12-18T02:33:08;8.18;;;1.70;;
16113;SDS011;8161;-33.910;151.156;2022-12-18T02:35:38;9.10;;;1.83;;
16113;SDS011;8161;-33.910;151.156;2022-12-18T02:38:08;8.93;;;1.58;;
16113;SDS011;8161;-33.910;151.156;2022-12-18T02:40:37;10.98;;;1.90;;
16113;SDS011;8161;-33.910;151.156;2022-12-18T02:43:10;9.25;;;1.65;;
16113;SDS011;8161;-33.910;151.156;2022-12-18T02:45:50;9.77;;;2.10;;
16113;SDS011;8161;-33.910;151.156;2022-12-18T02:48:22;9.68;;;1.25;;
16113;SDS011;8161;-33.910;151.156;2022-12-18T02:54:05;8.70;;;1.20;;
16113;SDS011;8161;-33.910;151.156;2022-12-18T02:56:36;5.80;;;1.40;;
16113;SDS011;8161;-33.910;151.156;2022-12-18T02:59:15;8.43;;;1.20;;
16113;SDS011;8161;-33.910;151.156;2022-12-18T03:01:58;9.52;;;1.42;;
16113;SDS011;8161;-33.910;151.156;2022-12-18T03:04:49;7.35;;;1.20;;
16113;SDS011;8161;-33.910;151.156;2022-12-18T03:07:27;7.72;;;1.27;;
16113;SDS011;8161;-33.910;151.156;2022-12-18T03:10:05;8.63;;;1.10;;
16113;SDS011;8161;-33.910;151.156;2022-12-18T03:12:40;7.05;;;1.23;;
16113;SDS011;8161;-33.910;151.156;2022-12-18T03:17:54;6.60;;;1.20;;
16113;SDS011;8161;-33.910;151.156;2022-12-18T03:20:29;3.58;;;1.30;;
16113;SDS011;8161;-33.910;151.156;2022-12-18T03:23:02;6.38;;;1.25;;
16113;SDS011;8161;-33.910;151.156;2022-12-18T03:25:40;10.90;;;1.80;;
16113;SDS011;8161;-33.910;151.156;2022-12-18T03:28:12;8.85;;;1.75;;
16113;SDS011;8161;-33.910;151.156;2022-12-18T03:30:43;9.55;;;1.20;;
16113;SDS011;8161;-33.910;151.156;2022-12-18T03:33:24;7.40;;;1.38;;
16113;SDS011;8161;-33.910;151.156;2022-12-18T03:35:55;8.70;;;1.92;;
16113;SDS011;8161;-33.910;151.156;2022-12-18T03:38:22;7.00;;;1.20;;
16113;SDS011;8161;-33.910;151.156;2022-12-18T03:40:56;6.90;;;1.40;;
16113;SDS011;8161;-33.910;151.156;2022-12-18T03:46:18;5.75;;;1.15;;
16113;SDS011;8161;-33.910;151.156;2022-12-18T03:51:56;6.00;;;1.63;;
16113;SDS011;8161;-33.910;151.156;2022-12-18T03:54:36;9.05;;;1.58;;
16113;SDS011;8161;-33.910;151.156;2022-12-18T03:57:09;9.30;;;1.60;;
16113;SDS011;8161;-33.910;151.156;2022-12-18T03:59:43;6.68;;;1.25;;
16113;SDS011;8161;-33.910;151.156;2022-12-18T04:02:13;5.22;;;1.23;;
16113;SDS011;8161;-33.910;151.156;2022-12-18T04:04:43;4.38;;;1.00;;
16113;SDS011;8161;-33.910;151.156;2022-12-18T04:07:13;5.38;;;1.20;;
16113;SDS011;8161;-33.910;151.156;2022-12-18T04:09:42;9.18;;;1.33;;
16113;SDS011;8161;-33.910;151.156;2022-12-18T04:12:11;4.15;;;0.90;;
16113;SDS011;8161;-33.910;151.156;2022-12-18T04:14:38;2.75;;;1.00;;
16113;SDS011;8161;-33.910;151.156;2022-12-18T04:17:05;7.30;;;1.13;;
16113;SDS011;8161;-33.910;151.156;2022-12-18T04:19:32;6.50;;;1.30;;
16113;SDS011;8161;-33.910;151.156;2022-12-18T04:22:00;6.30;;;1.42;;
16113;SDS011;8161;-33.910;151.156;2022-12-18T04:24:27;7.60;;;1.13;;
16113;SDS011;8161;-33.910;151.156;2022-12-18T04:26:54;7.50;;;1.30;;
16113;SDS011;8161;-33.910;151.156;2022-12-18T04:29:21;6.65;;;1.58;;
16113;SDS011;8161;-33.910;151.156;2022-12-18T04:31:49;7.95;;;1.60;;
16113;SDS011;8161;-33.910;151.156;2022-12-18T04:34:16;9.20;;;1.95;;
16113;SDS011;8161;-33.910;151.156;2022-12-18T04:36:43;6.10;;;1.20;;
16113;SDS011;8161;-33.910;151.156;2022-12-18T04:39:10;6.72;;;1.55;;
16113;SDS011;8161;-33.910;151.156;2022-12-18T04:41:38;9.82;;;1.70;;
16113;SDS011;8161;-33.910;151.156;2022-12-18T04:44:05;11.55;;;2.05;;
16113;SDS011;8161;-33.910;151.156;2022-12-18T04:46:32;9.20;;;1.67;;
16113;SDS011;8161;-33.910;151.156;2022-12-18T04:49:00;5.38;;;1.33;;
16113;SDS011;8161;-33.910;151.156;2022-12-18T04:51:27;8.23;;;1.35;;
16113;SDS011;8161;-33.910;151.156;2022-12-18T04:53:54;13.23;;;1.67;;
16113;SDS011;8161;-33.910;151.156;2022-12-18T04:56:22;7.88;;;1.23;;
16113;SDS011;8161;-33.910;151.156;2022-12-18T04:58:49;7.13;;;1.40;;
16113;SDS011;8161;-33.910;151.156;2022-12-18T05:01:18;5.97;;;1.10;;
16113;SDS011;8161;-33.910;151.156;2022-12-18T05:03:45;4.78;;;1.30;;
16113;SDS011;8161;-33.910;151.156;2022-12-18T05:06:13;7.40;;;1.08;;
16113;SDS011;8161;-33.910;151.156;2022-12-18T05:08:40;8.10;;;1.63;;
16113;SDS011;8161;-33.910;151.156;2022-12-18T05:11:10;6.28;;;0.95;;
16113;SDS011;8161;-33.910;151.156;2022-12-18T05:13:42;6.95;;;0.95;;
16113;SDS011;8161;-33.910;151.156;2022-12-18T05:16:10;4.82;;;1.25;;
16113;SDS011;8161;-33.910;151.156;2022-12-18T05:18:38;9.98;;;1.52;;
16113;SDS011;8161;-33.910;151.156;2022-12-18T05:21:05;5.85;;;1.30;;
16113;SDS011;8161;-33.910;151.156;2022-12-18T05:23:32;4.07;;;0.60;;
16113;SDS011;8161;-33.910;151.156;2022-12-18T05:26:01;6.38;;;1.00;;
16113;SDS011;8161;-33.910;151.156;2022-12-18T05:28:30;5.18;;;1.00;;
16113;SDS011;8161;-33.910;151.156;2022-12-18T05:30:59;3.83;;;0.98;;
16113;SDS011;8161;-33.910;151.156;2022-12-18T05:33:32;4.25;;;1.13;;
16113;SDS011;8161;-33.910;151.156;2022-12-18T05:36:01;4.00;;;0.90;;
16113;SDS011;8161;-33.910;151.156;2022-12-18T05:38:30;3.55;;;1.00;;
16113;SDS011;8161;-33.910;151.156;2022-12-18T05:41:01;6.47;;;0.90;;
16113;SDS011;8161;-33.910;151.156;2022-12-18T05:43:29;5.10;;;0.95;;
16113;SDS011;8161;-33.910;151.156;2022-12-18T05:45:56;3.55;;;0.82;;
16113;SDS011;8161;-33.910;151.156;2022-12-18T05:48:24;9.40;;;1.05;;
16113;SDS011;8161;-33.910;151.156;2022-12-18T05:50:51;3.42;;;1.15;;
16113;SDS011;8161;-33.910;151.156;2022-12-18T05:53:19;7.22;;;1.38;;
16113;SDS011;8161;-33.910;151.156;2022-12-18T05:55:47;8.05;;;1.30;;
16113;SDS011;8161;-33.910;151.156;2022-12-18T05:58:14;8.18;;;1.30;;
16113;SDS011;8161;-33.910;151.156;2022-12-18T06:00:43;5.03;;;1.13;;
16113;SDS011;8161;-33.910;151.156;2022-12-18T06:03:12;6.05;;;1.73;;
16113;SDS011;8161;-33.910;151.156;2022-12-18T06:05:40;6.32;;;0.98;;
16113;SDS011;8161;-33.910;151.156;2022-12-18T06:08:10;4.18;;;1.25;;
16113;SDS011;8161;-33.910;151.156;2022-12-18T06:10:38;6.88;;;1.45;;
16113;SDS011;8161;-33.910;151.156;2022-12-18T06:13:07;4.80;;;1.23;;
16113;SDS011;8161;-33.910;151.156;2022-12-18T06:15:37;4.15;;;1.23;;
16113;SDS011;8161;-33.910;151.156;2022-12-18T06:18:04;8.25;;;1.30;;
16113;SDS011;8161;-33.910;151.156;2022-12-18T06:20:32;8.88;;;1.20;;
16113;SDS011;8161;-33.910;151.156;2022-12-18T06:23:02;4.93;;;0.80;;
16113;SDS011;8161;-33.910;151.156;2022-12-18T06:25:30;6.97;;;1.20;;
16113;SDS011;8161;-33.910;151.156;2022-12-18T06:27:57;9.07;;;1.20;;
16113;SDS011;8161;-33.910;151.156;2022-12-18T06:30:25;4.47;;;1.10;;
16113;SDS011;8161;-33.910;151.156;2022-12-18T06:32:53;5.93;;;1.08;;
16113;SDS011;8161;-33.910;151.156;2022-12-18T06:35:20;9.30;;;1.65;;
16113;SDS011;8161;-33.910;151.156;2022-12-18T06:37:47;5.05;;;1.30;;
16113;SDS011;8161;-33.910;151.156;2022-12-18T06:40:15;3.75;;;1.50;;
16113;SDS011;8161;-33.910;151.156;2022-12-18T06:42:43;6.35;;;1.17;;
16113;SDS011;8161;-33.910;151.156;2022-12-18T06:45:10;10.07;;;1.70;;
16113;SDS011;8161;-33.910;151.156;2022-12-18T06:47:41;7.55;;;1.08;;
16113;SDS011;8161;-33.910;151.156;2022-12-18T06:50:08;2.88;;;0.90;;
16113;SDS011;8161;-33.910;151.156;2022-12-18T06:52:35;4.85;;;1.25;;
16113;SDS011;8161;-33.910;151.156;2022-12-18T06:55:04;2.88;;;0.90;;
16113;SDS011;8161;-33.910;151.156;2022-12-18T06:57:33;9.52;;;1.15;;
16113;SDS011;8161;-33.910;151.156;2022-12-18T07:00:02;5.75;;;1.23;;
16113;SDS011;8161;-33.910;151.156;2022-12-18T07:02:31;7.80;;;1.02;;
16113;SDS011;8161;-33.910;151.156;2022-12-18T07:04:58;7.50;;;1.08;;
16113;SDS011;8161;-33.910;151.156;2022-12-18T07:07:26;5.63;;;1.50;;
16113;SDS011;8161;-33.910;151.156;2022-12-18T07:09:57;6.00;;;0.80;;
16113;SDS011;8161;-33.910;151.156;2022-12-18T07:12:24;4.80;;;1.00;;
16113;SDS011;8161;-33.910;151.156;2022-12-18T07:14:52;6.28;;;0.98;;
16113;SDS011;8161;-33.910;151.156;2022-12-18T07:17:19;3.75;;;1.05;;
16113;SDS011;8161;-33.910;151.156;2022-12-18T07:19:47;7.78;;;1.30;;
16113;SDS011;8161;-33.910;151.156;2022-12-18T07:22:14;11.35;;;1.40;;
16113;SDS011;8161;-33.910;151.156;2022-12-18T07:24:42;5.78;;;1.23;;
16113;SDS011;8161;-33.910;151.156;2022-12-18T07:27:09;5.88;;;1.27;;
16113;SDS011;8161;-33.910;151.156;2022-12-18T07:29:36;8.13;;;1.17;;
16113;SDS011;8161;-33.910;151.156;2022-12-18T07:32:04;11.55;;;1.75;;
16113;SDS011;8161;-33.910;151.156;2022-12-18T07:34:32;8.27;;;1.38;;
16113;SDS011;8161;-33.910;151.156;2022-12-18T07:37:00;6.78;;;1.40;;
16113;SDS011;8161;-33.910;151.156;2022-12-18T07:39:28;8.63;;;2.00;;
16113;SDS011;8161;-33.910;151.156;2022-12-18T07:41:55;7.72;;;1.52;;
16113;SDS011;8161;-33.910;151.156;2022-12-18T07:44:35;6.82;;;1.20;;
16113;SDS011;8161;-33.910;151.156;2022-12-18T07:47:03;7.60;;;1.20;;
16113;SDS011;8161;-33.910;151.156;2022-12-18T07:49:30;9.38;;;1.60;;
16113;SDS011;8161;-33.910;151.156;2022-12-18T07:51:58;6.47;;;1.33;;
16113;SDS011;8161;-33.910;151.156;2022-12-18T07:54:25;12.07;;;2.33;;
16113;SDS011;8161;-33.910;151.156;2022-12-18T07:56:52;9.95;;;1.70;;
16113;SDS011;8161;-33.910;151.156;2022-12-18T07:59:19;9.40;;;1.45;;
16113;SDS011;8161;-33.910;151.156;2022-12-18T08:01:47;9.35;;;2.08;;
16113;SDS011;8161;-33.910;151.156;2022-12-18T08:04:14;8.77;;;1.52;;
16113;SDS011;8161;-33.910;151.156;2022-12-18T08:06:41;9.70;;;1.52;;
16113;SDS011;8161;-33.910;151.156;2022-12-18T08:09:09;7.10;;;1.30;;
16113;SDS011;8161;-33.910;151.156;2022-12-18T08:11:36;11.13;;;1.80;;
16113;SDS011;8161;-33.910;151.156;2022-12-18T08:14:04;8.85;;;1.83;;
16113;SDS011;8161;-33.910;151.156;2022-12-18T08:16:31;5.45;;;1.13;;
16113;SDS011;8161;-33.910;151.156;2022-12-18T08:18:58;8.30;;;1.25;;
16113;SDS011;8161;-33.910;151.156;2022-12-18T08:21:27;4.28;;;1.10;;
16113;SDS011;8161;-33.910;151.156;2022-12-18T08:23:58;7.00;;;0.90;;
16113;SDS011;8161;-33.910;151.156;2022-12-18T08:26:27;5.97;;;1.17;;
16113;SDS011;8161;-33.910;151.156;2022-12-18T08:28:56;3.38;;;1.13;;
16113;SDS011;8161;-33.910;151.156;2022-12-18T08:31:25;4.38;;;1.02;;
16113;SDS011;8161;-33.910;151.156;2022-12-18T08:33:53;5.95;;;1.05;;
16113;SDS011;8161;-33.910;151.156;2022-12-18T08:36:21;4.38;;;1.00;;
16113;SDS011;8161;-33.910;151.156;2022-12-18T08:38:50;6.10;;;1.48;;
16113;SDS011;8161;-33.910;151.156;2022-12-18T08:41:19;6.20;;;1.33;;
16113;SDS011;8161;-33.910;151.156;2022-12-18T08:43:46;4.95;;;1.10;;
16113;SDS011;8161;-33.910;151.156;2022-12-18T08:46:26;5.93;;;1.40;;
16113;SDS011;8161;-33.910;151.156;2022-12-18T08:48:58;5.80;;;1.00;;
16113;SDS011;8161;-33.910;151.156;2022-12-18T08:51:25;12.52;;;1.50;;
16113;SDS011;8161;-33.910;151.156;2022-12-18T08:53:52;5.60;;;1.00;;
16113;SDS011;8161;-33.910;151.156;2022-12-18T08:56:20;10.10;;;1.20;;
16113;SDS011;8161;-33.910;151.156;2022-12-18T08:58:47;11.50;;;1.52;;
16113;SDS011;8161;-33.910;151.156;2022-12-18T09:01:16;5.45;;;1.38;;
16113;SDS011;8161;-33.910;151.156;2022-12-18T09:03:44;6.07;;;0.90;;
16113;SDS011;8161;-33.910;151.156;2022-12-18T09:06:13;3.45;;;0.70;;
16113;SDS011;8161;-33.910;151.156;2022-12-18T09:08:42;4.45;;;1.05;;
16113;SDS011;8161;-33.910;151.156;2022-12-18T09:11:13;3.05;;;0.70;;
16113;SDS011;8161;-33.910;151.156;2022-12-18T09:13:48;4.18;;;0.55;;
16113;SDS011;8161;-33.910;151.156;2022-12-18T09:16:16;5.53;;;0.93;;
16113;SDS011;8161;-33.910;151.156;2022-12-18T09:18:45;7.45;;;1.00;;
16113;SDS011;8161;-33.910;151.156;2022-12-18T09:21:13;4.60;;;1.05;;
16113;SDS011;8161;-33.910;151.156;2022-12-18T09:23:42;5.15;;;0.90;;
16113;SDS011;8161;-33.910;151.156;2022-12-18T09:26:10;5.43;;;0.75;;
16113;SDS011;8161;-33.910;151.156;2022-12-18T09:28:37;3.58;;;1.30;;
16113;SDS011;8161;-33.910;151.156;2022-12-18T09:31:05;7.50;;;1.08;;
16113;SDS011;8161;-33.910;151.156;2022-12-18T09:33:37;7.55;;;1.20;;
16113;SDS011;8161;-33.910;151.156;2022-12-18T09:36:07;6.15;;;1.17;;
16113;SDS011;8161;-33.910;151.156;2022-12-18T09:38:37;5.72;;;1.25;;
16113;SDS011;8161;-33.910;151.156;2022-12-18T09:41:06;7.80;;;1.50;;
16113;SDS011;8161;-33.910;151.156;2022-12-18T09:43:44;5.32;;;1.00;;
16113;SDS011;8161;-33.910;151.156;2022-12-18T09:46:19;6.97;;;1.42;;
16113;SDS011;8161;-33.910;151.156;2022-12-18T09:49:01;7.85;;;1.10;;
16113;SDS011;8161;-33.910;151.156;2022-12-18T09:51:54;7.55;;;1.27;;
16113;SDS011;8161;-33.910;151.156;2022-12-18T09:54:30;3.70;;;1.02;;
16113;SDS011;8161;-33.910;151.156;2022-12-18T09:57:04;5.32;;;1.00;;
16113;SDS011;8161;-33.910;151.156;2022-12-18T09:59:38;8.00;;;1.58;;
16113;SDS011;8161;-33.910;151.156;2022-12-18T10:02:25;7.60;;;1.00;;
16113;SDS011;8161;-33.910;151.156;2022-12-18T10:05:03;3.65;;;0.98;;
16113;SDS011;8161;-33.910;151.156;2022-12-18T10:21:20;11.25;;;1.30;;
16113;SDS011;8161;-33.910;151.156;2022-12-18T10:24:13;6.93;;;1.20;;
16113;SDS011;8161;-33.910;151.156;2022-12-18T10:26:59;3.38;;;0.90;;
16113;SDS011;8161;-33.910;151.156;2022-12-18T10:29:51;6.97;;;1.35;;
16113;SDS011;8161;-33.910;151.156;2022-12-18T10:32:23;6.65;;;1.20;;
16113;SDS011;8161;-33.910;151.156;2022-12-18T10:34:54;14.65;;;1.70;;
16113;SDS011;8161;-33.910;151.156;2022-12-18T10:37:24;8.98;;;1.42;;
16113;SDS011;8161;-33.910;151.156;2022-12-18T10:42:35;3.47;;;0.95;;
16113;SDS011;8161;-33.910;151.156;2022-12-18T10:47:44;10.13;;;1.98;;
16113;SDS011;8161;-33.910;151.156;2022-12-18T10:53:00;10.35;;;1.88;;
16113;SDS011;8161;-33.910;151.156;2022-12-18T10:55:31;9.32;;;1.98;;
16113;SDS011;8161;-33.910;151.156;2022-12-18T11:03:39;9.02;;;2.13;;
16113;SDS011;8161;-33.910;151.156;2022-12-18T11:06:17;7.78;;;1.33;;
16113;SDS011;8161;-33.910;151.156;2022-12-18T11:11:30;9.02;;;1.52;;
16113;SDS011;8161;-33.910;151.156;2022-12-18T11:16:26;16.77;;;1.83;;
16113;SDS011;8161;-33.910;151.156;2022-12-18T11:19:08;5.47;;;1.60;;
16113;SDS011;8161;-33.910;151.156;2022-12-18T11:21:46;13.55;;;3.45;;
16113;SDS011;8161;-33.910;151.156;2022-12-18T11:24:20;12.95;;;2.55;;
16113;SDS011;8161;-33.910;151.156;2022-12-18T11:27:03;10.55;;;1.75;;
16113;SDS011;8161;-33.910;151.156;2022-12-18T11:29:39;11.48;;;2.05;;
16113;SDS011;8161;-33.910;151.156;2022-12-18T11:35:02;8.65;;;1.52;;
16113;SDS011;8161;-33.910;151.156;2022-12-18T11:37:43;9.40;;;1.70;;
16113;SDS011;8161;-33.910;151.156;2022-12-18T11:40:24;9.82;;;1.77;;
16113;SDS011;8161;-33.910;151.156;2022-12-18T11:43:08;10.57;;;2.30;;
16113;SDS011;8161;-33.910;151.156;2022-12-18T11:48:49;7.50;;;1.60;;
16113;SDS011;8161;-33.910;151.156;2022-12-18T11:51:56;7.47;;;1.70;;
16113;SDS011;8161;-33.910;151.156;2022-12-18T11:54:15;10.45;;;1.77;;
16113;SDS011;8161;-33.910;151.156;2022-12-18T11:56:46;14.23;;;2.50;;
16113;SDS011;8161;-33.910;151.156;2022-12-18T11:59:31;8.07;;;2.33;;
16113;SDS011;8161;-33.910;151.156;2022-12-18T12:02:15;9.02;;;1.60;;
16113;SDS011;8161;-33.910;151.156;2022-12-18T12:05:00;9.00;;;1.85;;
16113;SDS011;8161;-33.910;151.156;2022-12-18T12:16:09;7.20;;;1.67;;
16113;SDS011;8161;-33.910;151.156;2022-12-18T12:30:39;6.88;;;0.95;;
16113;SDS011;8161;-33.910;151.156;2022-12-18T12:38:54;8.35;;;1.13;;
16113;SDS011;8161;-33.910;151.156;2022-12-18T12:41:27;6.90;;;1.20;;
16113;SDS011;8161;-33.910;151.156;2022-12-18T12:44:18;7.85;;;1.20;;
16113;SDS011;8161;-33.910;151.156;2022-12-18T12:46:58;9.82;;;1.67;;
16113;SDS011;8161;-33.910;151.156;2022-12-18T12:49:33;6.10;;;1.65;;
16113;SDS011;8161;-33.910;151.156;2022-12-18T12:55:05;14.10;;;1.60;;
16113;SDS011;8161;-33.910;151.156;2022-12-18T12:57:54;8.05;;;1.67;;
16113;SDS011;8161;-33.910;151.156;2022-12-18T13:00:40;8.23;;;1.42;;
16113;SDS011;8161;-33.910;151.156;2022-12-18T13:03:41;10.85;;;1.77;;
16113;SDS011;8161;-33.910;151.156;2022-12-18T13:06:28;13.52;;;2.17;;
16113;SDS011;8161;-33.910;151.156;2022-12-18T13:09:02;14.43;;;2.17;;
16113;SDS011;8161;-33.910;151.156;2022-12-18T13:11:37;18.17;;;1.90;;
16113;SDS011;8161;-33.910;151.156;2022-12-18T13:14:28;14.40;;;3.22;;
16113;SDS011;8161;-33.910;151.156;2022-12-18T13:19:42;21.77;;;2.75;;
16113;SDS011;8161;-33.910;151.156;2022-12-18T13:22:20;20.15;;;2.97;;
16113;SDS011;8161;-33.910;151.156;2022-12-18T13:24:49;16.45;;;3.08;;
16113;SDS011;8161;-33.910;151.156;2022-12-18T13:30:38;18.52;;;3.00;;
16113;SDS011;8161;-33.910;151.156;2022-12-18T13:41:02;21.15;;;3.10;;
16113;SDS011;8161;-33.910;151.156;2022-12-18T13:43:44;21.88;;;2.95;;
16113;SDS011;8161;-33.910;151.156;2022-12-18T13:51:31;27.08;;;4.18;;
16113;SDS011;8161;-33.910;151.156;2022-12-18T13:54:01;28.52;;;3.80;;
16113;SDS011;8161;-33.910;151.156;2022-12-18T13:56:43;28.67;;;3.67;;
16113;SDS011;8161;-33.910;151.156;2022-12-18T13:59:15;22.63;;;3.42;;
16113;SDS011;8161;-33.910;151.156;2022-12-18T14:01:45;19.40;;;3.70;;
16113;SDS011;8161;-33.910;151.156;2022-12-18T14:04:21;29.40;;;3.75;;
16113;SDS011;8161;-33.910;151.156;2022-12-18T14:07:03;20.73;;;2.85;;
16113;SDS011;8161;-33.910;151.156;2022-12-18T14:09:37;20.50;;;2.70;;
16113;SDS011;8161;-33.910;151.156;2022-12-18T14:12:24;22.13;;;3.05;;
16113;SDS011;8161;-33.910;151.156;2022-12-18T14:15:10;22.85;;;2.85;;
16113;SDS011;8161;-33.910;151.156;2022-12-18T14:17:57;17.25;;;2.85;;
16113;SDS011;8161;-33.910;151.156;2022-12-18T14:20:31;16.50;;;2.80;;
16113;SDS011;8161;-33.910;151.156;2022-12-18T14:22:59;14.18;;;2.67;;
16113;SDS011;8161;-33.910;151.156;2022-12-18T14:25:27;16.63;;;2.88;;
16113;SDS011;8161;-33.910;151.156;2022-12-18T14:28:07;15.45;;;3.10;;
16113;SDS011;8161;-33.910;151.156;2022-12-18T14:30:41;14.77;;;4.22;;
16113;SDS011;8161;-33.910;151.156;2022-12-18T14:33:14;16.83;;;2.88;;
16113;SDS011;8161;-33.910;151.156;2022-12-18T14:35:57;18.65;;;2.33;;
16113;SDS011;8161;-33.910;151.156;2022-12-18T14:38:33;12.75;;;2.53;;
16113;SDS011;8161;-33.910;151.156;2022-12-18T14:43:40;15.73;;;2.65;;
16113;SDS011;8161;-33.910;151.156;2022-12-18T14:48:55;16.20;;;2.35;;
16113;SDS011;8161;-33.910;151.156;2022-12-18T14:51:26;11.52;;;2.40;;
16113;SDS011;8161;-33.910;151.156;2022-12-18T14:53:59;13.48;;;2.90;;
16113;SDS011;8161;-33.910;151.156;2022-12-18T14:56:35;19.90;;;3.60;;
16113;SDS011;8161;-33.910;151.156;2022-12-18T14:59:19;13.10;;;3.03;;
16113;SDS011;8161;-33.910;151.156;2022-12-18T15:04:42;14.05;;;2.88;;
16113;SDS011;8161;-33.910;151.156;2022-12-18T15:09:46;16.42;;;1.90;;
16113;SDS011;8161;-33.910;151.156;2022-12-18T15:12:38;15.20;;;1.98;;
16113;SDS011;8161;-33.910;151.156;2022-12-18T15:18:03;15.48;;;2.30;;
16113;SDS011;8161;-33.910;151.156;2022-12-18T15:20:43;19.10;;;2.83;;
16113;SDS011;8161;-33.910;151.156;2022-12-18T15:23:32;22.65;;;2.85;;
16113;SDS011;8161;-33.910;151.156;2022-12-18T15:26:14;20.23;;;2.65;;
16113;SDS011;8161;-33.910;151.156;2022-12-18T15:31:30;13.68;;;2.38;;
16113;SDS011;8161;-33.910;151.156;2022-12-18T15:34:05;16.77;;;3.28;;
16113;SDS011;8161;-33.910;151.156;2022-12-18T15:36:37;21.85;;;3.42;;
16113;SDS011;8161;-33.910;151.156;2022-12-18T15:39:05;25.50;;;3.35;;
16113;SDS011;8161;-33.910;151.156;2022-12-18T15:41:33;20.38;;;3.08;;
16113;SDS011;8161;-33.910;151.156;2022-12-18T15:44:02;38.75;;;3.92;;
16113;SDS011;8161;-33.910;151.156;2022-12-18T15:46:46;17.50;;;3.15;;
16113;SDS011;8161;-33.910;151.156;2022-12-18T15:49:16;15.60;;;4.03;;
16113;SDS011;8161;-33.910;151.156;2022-12-18T15:51:44;26.75;;;3.45;;
16113;SDS011;8161;-33.910;151.156;2022-12-18T15:54:16;21.08;;;3.13;;
16113;SDS011;8161;-33.910;151.156;2022-12-18T15:57:03;23.15;;;3.38;;
16113;SDS011;8161;-33.910;151.156;2022-12-18T15:59:43;25.55;;;2.97;;
16113;SDS011;8161;-33.910;151.156;2022-12-18T16:02:13;20.25;;;3.35;;
16113;SDS011;8161;-33.910;151.156;2022-12-18T16:04:43;22.45;;;3.50;;
16113;SDS011;8161;-33.910;151.156;2022-12-18T16:07:11;27.27;;;3.42;;
16113;SDS011;8161;-33.910;151.156;2022-12-18T16:09:39;26.23;;;3.58;;
16113;SDS011;8161;-33.910;151.156;2022-12-18T16:12:18;16.52;;;2.80;;
16113;SDS011;8161;-33.910;151.156;2022-12-18T16:14:50;23.80;;;2.83;;
16113;SDS011;8161;-33.910;151.156;2022-12-18T16:17:18;16.58;;;3.30;;
16113;SDS011;8161;-33.910;151.156;2022-12-18T16:19:46;17.05;;;2.58;;
16113;SDS011;8161;-33.910;151.156;2022-12-18T16:22:34;26.00;;;3.53;;
16113;SDS011;8161;-33.910;151.156;2022-12-18T16:25:01;20.42;;;4.65;;
16113;SDS011;8161;-33.910;151.156;2022-12-18T16:27:28;22.13;;;2.90;;
16113;SDS011;8161;-33.910;151.156;2022-12-18T16:29:55;19.45;;;3.17;;
16113;SDS011;8161;-33.910;151.156;2022-12-18T16:32:23;23.17;;;3.33;;
16113;SDS011;8161;-33.910;151.156;2022-12-18T16:34:50;23.40;;;4.40;;
16113;SDS011;8161;-33.910;151.156;2022-12-18T16:37:17;26.15;;;3.90;;
16113;SDS011;8161;-33.910;151.156;2022-12-18T16:39:44;15.77;;;3.22;;
16113;SDS011;8161;-33.910;151.156;2022-12-18T16:42:16;23.63;;;4.03;;
16113;SDS011;8161;-33.910;151.156;2022-12-18T16:44:44;23.55;;;3.40;;
16113;SDS011;8161;-33.910;151.156;2022-12-18T16:47:12;24.05;;;3.78;;
16113;SDS011;8161;-33.910;151.156;2022-12-18T16:49:40;22.00;;;3.92;;
16113;SDS011;8161;-33.910;151.156;2022-12-18T16:52:09;22.23;;;3.60;;
16113;SDS011;8161;-33.910;151.156;2022-12-18T16:54:37;14.93;;;2.95;;